Friday, May 06, 2016
16:52 UTC
  |  Log In   |  Register Free
Airport Search:

Norwood Memorial Airport
(KOWD)

FAA data valid effective Mar 31 2016 - May 26 2016 (unless otherwise noted).

 
 
 
 
 
 
 
 
 
 
 
 
 
 
Current Aviation Weather for KOWD

Weather Summary


The most recent METAR observation for OWD was updated at: 12:53 UTC
METAR for KOWD is not available. Closest METAR is for KBOS
KOWD  (most recent observation was updatred at 61:55 UTC)
061553Z 07012G22KT 10SM OVC020 12/07 A2985 RMK AO2 SLP106 T01220067

KBOS  (12.7 nm SW)   (most recent observation was updated at 61:55 UTC)
061554Z 07013KT 10SM FEW015 BKN020 BKN200 11/07 A2986 RMK AO2 SLP111 T01060072

KBED  (17.6 nm SE)   (most recent observation was updated at 61:55 UTC)
061556Z 06014KT 10SM OVC023 14/08 A2983 RMK AO2 SLP114 T01390078

TAF for KOWD is not available.
KBOS  (12.7 nm SW)   (most recent observation was updatred at 61:50 UTC)
AMD 061506Z 0615/0718 07010KT P6SM BKN025 FM061800 08011KT P6SM BKN035 FM070300 07007KT 6SM BR VCSH OVC010


KBED  (17.6 nm SE)   (most recent observation was updatred at 61:12 UTC)
061122Z 0612/0712 03005KT P6SM OVC025 FM061600 07008KT P6SM VCSH BKN035 FM070100 08006KT 6SM -RA BR OVC025 FM070300 07005KT 3SM -RA BR OVC015


KPVD  (30.2 nm NE)   (most recent observation was updatred at 61:50 UTC)
AMD 061509Z 0615/0712 04011KT P6SM OVC015 FM061800 05012KT P6SM OVC025 FM062000 08011KT P6SM VCSH OVC025 FM062300 07010KT 4SM -RA BR OVC015 FM070100 07009KT 4SM -RA BR OVC008
GlobalAir.com is loading additional information.
 Current Weather at OWD
52.0 F° (11.1 C°)

Northeast winds at 11.5 mph
Pressure:
29.84 in
Humidity:
72%
Wind:
Northeast at 11.5 mph
Dew Point:
43.0 F° (6.1 C°)
Visibility:
10.00 mi
OWD NOAA Radar




Find All Airport Services Find A Hotel Find A Rental Car Find A Golf Course Find A Restaurant $100 Hamburger



Airport Weather Forecast for KOWD

Translated METAR for KOWD (1553 UTC)
METAR:
KOWD 061553Z 07012G22KT 10SM OVC020 12/07 A2985 RMK AO2 SLP106 T01220067
Conditions at:
KOWD (Norwood Memorial, MA) observed 1553 UTC 06 May 2016
Temperature:
12°C (53.6°F)
Dewpoint:
7°C (44.6°F) [RH = 71.5]
Pressure:
29.85 inches Hg (1010.8 mb)
pressure at sea level is 106 in Hg
Winds:
from the ENE (070 degrees) at 13.8 mph (12 knots: 6.2 m/s)
gusting to 25.3 mph (22 knots: 11.3 m/s)
Visibility:
10 mile(s)
Ceiling:
2,000 feet AGL
Clouds:
Overcast Skies at 2,000 feet AGL
Remarks:
site is automated and HAS a precipitation sensor

Translated TAF for KBOS (General Edward Lawrence Logan Intl, MA) (1506 UTC)
TAF text:
KBOS 061506Z 0615/0718 07010KT P6SM BKN025
Forecast period:
Friday May 06 2016 15:00 UTC - Saturday May 07 2016 18:00 UTC
Forecast type:
FROM: standard forecast or significant change
Winds:
from the ENE (070 degrees) at 11.5 mph (10 knots: 5.1 m/s)
Visibility:
6 or more mile(s) (9.7+ km)
Ceiling:
2,500 feet AGL
Clouds:
Broken Cloud Cover at 2,500 feet AGL
Weather:
no significant weather observed at this time
TAF text:
FM061800 08011KT P6SM BKN035
Forecast period:
Friday May 06 2016 18:00 UTC - Saturday May 07 2016 03:00 UTC
Forecast type:
FROM: standard forecast or significant change
Winds:
from the E (080 degrees) at 12.7 mph (11 knots: 5.7 m/s)
Visibility:
6 or more mile(s) (9.7+ km)
Ceiling:
3,500 feet AGL
Clouds:
Broken Cloud Cover at 3,500 feet AGL
Weather:
no significant weather observed at this time
TAF text:
FM070300 07007KT 6SM BR VCSH OVC010
Forecast period:
Saturday May 07 2016 03:00 UTC - Saturday May 07 2016 18:00 UTC
Forecast type:
FROM: standard forecast or significant change
Winds:
from the ENE (070 degrees) at 8.1 mph (7 knots: 3.6 m/s)
Visibility:
6 mile(s) (9.7 km)
Ceiling:
1,000 feet AGL
Clouds:
Overcast Skies at 1,000 feet AGL
Weather:
Moderate Mist
FBO's on the Field
FBO Company Facility Photos Services Transportation Aviation Fuel Prices: Prices include tax
Catering Weather Repair Courtesy Rental Type 100LL JetA JetA+ MOGAS 8087
 
FlightLevel Aviation - OWD

Currently rated 5 by 3 people
FS:Shell
Last Updated: May-04
Login to update fuel prices
SS:
Contact FlightLevel Aviation - OWDMore FBO Information
 
Add another FBO Facility Photos Catering Weather Repair Courtesy Rental Type 100LL JetA JetA+ MOGAS 8087
Services Transportation Aviation Fuel Prices: Prices include tax


model-print
model-print
model-print
model-print